Time;durP1;ratioP1;P1;durP2;ratioP2;P2;SDS_P1;SDS_P2;PMS_P1;PMS_P2;Temp;Humidity;BMP_temperature;BMP_pressure;BME280_temperature;BME280_humidity;BME280_pressure;Samples;Min_cycle;Max_cycle;Signal;HPM_P1;HPM_P2
2023/10/08 00:00:55;;;;;;;0.63;0.43;;;13.70;99.90;;;;;;5072563;28;20052;-59
2023/10/08 00:03:21;;;;;;;2.42;0.60;;;13.60;99.90;;;;;;5071328;28;20052;-59
2023/10/08 00:05:49;;;;;;;3.85;0.70;;;13.70;99.90;;;;;;5072016;28;20059;-60
2023/10/08 00:08:16;;;;;;;0.90;0.50;;;13.60;99.90;;;;;;5071245;28;20380;-59
2023/10/08 00:10:44;;;;;;;3.42;0.60;;;13.70;99.90;;;;;;5072425;28;20231;-60
2023/10/08 00:13:15;;;;;;;1.20;0.50;;;13.60;99.90;;;;;;5072205;28;20048;-59
2023/10/08 00:15:51;;;;;;;2.20;0.65;;;13.80;99.90;;;;;;5072224;28;20044;-60
2023/10/08 00:18:22;;;;;;;2.92;0.60;;;13.70;99.90;;;;;;5072360;28;20044;-60
2023/10/08 00:20:57;;;;;;;2.60;0.60;;;13.80;99.90;;;;;;5072317;28;20393;-60
2023/10/08 00:23:26;;;;;;;3.47;0.50;;;13.80;99.90;;;;;;5071931;28;20531;-60
2023/10/08 00:25:55;;;;;;;4.10;0.70;;;13.90;99.90;;;;;;5071946;28;20044;-59
2023/10/08 00:28:21;;;;;;;2.33;0.63;;;13.80;99.90;;;;;;5071819;28;20488;-60
2023/10/08 00:30:53;;;;;;;5.20;0.73;;;13.90;99.90;;;;;;5071922;28;20080;-60
2023/10/08 00:33:19;;;;;;;2.20;0.60;;;13.70;99.90;;;;;;5071888;28;20044;-60
2023/10/08 00:35:44;;;;;;;2.75;0.90;;;13.70;99.90;;;;;;5071583;28;20055;-59
2023/10/08 00:38:20;;;;;;;1.98;0.60;;;13.70;99.90;;;;;;5072088;28;20048;-60
2023/10/08 00:40:46;;;;;;;3.15;0.80;;;13.80;99.90;;;;;;5071926;28;20036;-59
2023/10/08 00:43:36;;;;;;;2.88;0.60;;;13.80;99.90;;;;;;5072005;28;20090;-59
2023/10/08 00:46:49;;;;;;;1.70;0.68;;;13.90;99.90;;;;;;5064413;28;20037;-60
2023/10/08 00:48:56;;;;;;;4.65;0.63;;;13.80;99.90;;;;;;5057649;28;20400;-59
2023/10/08 00:51:27;;;;;;;3.97;0.73;;;14.00;99.90;;;;;;5068408;28;20500;-59
2023/10/08 00:53:58;;;;;;;3.35;0.80;;;13.90;99.90;;;;;;5072065;28;20048;-60
2023/10/08 00:56:45;;;;;;;2.73;0.70;;;13.70;99.90;;;;;;5071795;28;20036;-60
2023/10/08 00:59:15;;;;;;;2.70;0.93;;;13.90;99.90;;;;;;5071703;28;20286;-58
2023/10/08 01:01:59;;;;;;;2.55;0.77;;;13.80;99.90;;;;;;5071803;28;20040;-59
2023/10/08 01:04:33;;;;;;;2.80;0.80;;;13.80;99.90;;;;;;5071665;28;20037;-59
2023/10/08 01:07:23;;;;;;;3.67;0.77;;;13.80;99.90;;;;;;5071897;28;20048;-59
2023/10/08 01:09:50;;;;;;;3.42;0.82;;;13.80;99.90;;;;;;5069657;28;20135;-59
2023/10/08 01:12:23;;;;;;;3.40;1.15;;;13.90;99.90;;;;;;5071892;28;20044;-60
2023/10/08 01:14:53;;;;;;;3.15;0.90;;;13.80;99.90;;;;;;5071494;28;20041;-60
2023/10/08 01:17:26;;;;;;;4.40;1.00;;;13.90;99.90;;;;;;5071879;28;20053;-60
2023/10/08 01:22:39;;;;;;;3.00;0.80;;;13.90;99.90;;;;;;5065309;28;20055;-60
2023/10/08 01:25:05;;;;;;;7.00;1.10;;;13.90;99.90;;;;;;5072227;28;20124;-60
2023/10/08 01:27:34;;;;;;;3.83;0.90;;;13.90;99.90;;;;;;5075053;28;20052;-59
2023/10/08 01:30:12;;;;;;;2.38;0.95;;;13.90;99.90;;;;;;5075488;28;20040;-60
2023/10/08 01:32:38;;;;;;;3.72;1.00;;;13.90;99.90;;;;;;5075276;28;20109;-60
2023/10/08 01:35:15;;;;;;;4.68;1.05;;;13.80;99.90;;;;;;5074987;28;20080;-59
2023/10/08 01:37:41;;;;;;;1.88;0.80;;;13.60;99.90;;;;;;5075352;28;20075;-60
2023/10/08 01:40:09;;;;;;;4.00;0.82;;;13.70;99.90;;;;;;5075020;28;20102;-60
2023/10/08 01:42:38;;;;;;;3.60;0.82;;;13.70;99.90;;;;;;5073588;28;20079;-60
2023/10/08 01:45:07;;;;;;;6.88;1.10;;;13.80;99.90;;;;;;5075105;28;20045;-60
2023/10/08 01:47:33;;;;;;;4.13;0.90;;;13.80;99.90;;;;;;5074925;28;20388;-60
2023/10/08 01:50:05;;;;;;;2.35;0.80;;;13.80;99.90;;;;;;5074850;28;20040;-60
2023/10/08 01:52:31;;;;;;;5.65;1.20;;;13.80;99.90;;;;;;5073919;28;20048;-59
2023/10/08 01:54:57;;;;;;;5.43;0.90;;;13.80;99.90;;;;;;5073570;28;20068;-60
2023/10/08 01:57:23;;;;;;;4.07;0.88;;;13.80;99.90;;;;;;5073678;28;20056;-59
2023/10/08 01:59:49;;;;;;;4.53;1.10;;;13.80;99.90;;;;;;5074771;28;20127;-60
2023/10/08 02:02:15;;;;;;;4.03;1.17;;;13.80;99.90;;;;;;5074675;28;20407;-60
2023/10/08 02:04:41;;;;;;;5.90;1.45;;;13.80;99.90;;;;;;5074562;28;20473;-60
2023/10/08 02:07:13;;;;;;;6.10;1.05;;;13.80;99.90;;;;;;5074819;28;20032;-60
2023/10/08 02:09:40;;;;;;;3.67;1.23;;;13.80;99.90;;;;;;5074532;28;20049;-59
2023/10/08 02:12:05;;;;;;;4.45;1.00;;;13.80;99.90;;;;;;5073444;28;20044;-60
2023/10/08 02:14:31;;;;;;;4.35;0.93;;;13.80;99.90;;;;;;5074474;28;20115;-60
2023/10/08 02:17:01;;;;;;;4.55;1.02;;;13.90;99.90;;;;;;5074676;28;20047;-60
2023/10/08 02:19:28;;;;;;;4.07;0.90;;;13.70;99.90;;;;;;5074327;28;20055;-60
2023/10/08 02:21:54;;;;;;;4.38;1.00;;;13.70;99.90;;;;;;5074327;28;20037;-60
2023/10/08 02:24:23;;;;;;;4.07;0.90;;;13.80;99.90;;;;;;5074209;28;20542;-60
2023/10/08 02:26:57;;;;;;;5.78;1.00;;;13.80;99.90;;;;;;5074253;28;20048;-60
2023/10/08 02:29:26;;;;;;;4.72;1.10;;;13.80;99.90;;;;;;5072769;28;20494;-60
2023/10/08 02:31:55;;;;;;;3.78;1.10;;;13.80;99.90;;;;;;5074324;28;20500;-60
2023/10/08 02:34:21;;;;;;;3.78;0.80;;;13.80;99.90;;;;;;5073901;28;20055;-60
2023/10/08 02:36:46;;;;;;;6.18;2.03;;;13.80;99.90;;;;;;5074167;28;20037;-60
2023/10/08 02:39:25;;;;;;;4.60;1.38;;;13.70;99.90;;;;;;5074019;28;20056;-60
2023/10/08 02:41:51;;;;;;;5.57;0.90;;;13.80;99.90;;;;;;5072960;28;20087;-60
2023/10/08 02:44:17;;;;;;;5.05;1.30;;;13.80;99.90;;;;;;5073844;28;20041;-60
2023/10/08 02:46:47;;;;;;;8.63;1.33;;;13.70;99.90;;;;;;5073864;28;20438;-60
2023/10/08 02:49:20;;;;;;;5.18;1.40;;;13.60;99.90;;;;;;5073731;28;20052;-60
2023/10/08 02:51:50;;;;;;;5.80;1.00;;;13.70;99.90;;;;;;5074030;28;20484;-59
2023/10/08 02:54:17;;;;;;;7.53;1.13;;;13.70;99.90;;;;;;5073619;28;20488;-59
2023/10/08 02:56:51;;;;;;;4.43;0.85;;;13.70;99.90;;;;;;5073459;28;20052;-60
2023/10/08 02:59:21;;;;;;;5.75;2.03;;;13.80;99.90;;;;;;5073893;28;20044;-60
2023/10/08 03:01:49;;;;;;;6.28;1.55;;;13.70;99.90;;;;;;5061375;28;20492;-59
2023/10/08 03:04:18;;;;;;;6.20;1.30;;;13.80;99.90;;;;;;5055876;28;20047;-60
2023/10/08 03:06:52;;;;;;;6.50;1.20;;;13.80;99.90;;;;;;5064054;28;20055;-60
2023/10/08 03:09:26;;;;;;;6.03;1.10;;;13.80;99.90;;;;;;5069432;28;20487;-60
2023/10/08 03:11:52;;;;;;;5.35;1.00;;;13.80;99.90;;;;;;5061470;28;20025;-60
2023/10/08 03:14:22;;;;;;;3.88;1.00;;;13.70;99.90;;;;;;5063519;28;20036;-60
2023/10/08 03:17:03;;;;;;;4.68;1.23;;;13.70;99.90;;;;;;5072409;28;20114;-60
2023/10/08 03:19:30;;;;;;;5.60;1.20;;;13.70;99.90;;;;;;5073179;28;20497;-59
2023/10/08 03:21:56;;;;;;;5.28;1.05;;;13.80;99.90;;;;;;5073068;28;20048;-59
2023/10/08 03:27:12;;;;;;;5.93;1.20;;;13.80;99.90;;;;;;5061075;28;20037;-59
2023/10/08 03:29:41;;;;;;;6.93;1.00;;;13.80;99.90;;;;;;5061846;28;20049;-60
2023/10/08 03:32:15;;;;;;;4.65;1.13;;;13.80;99.90;;;;;;5072872;28;20051;-60
2023/10/08 03:34:49;;;;;;;8.23;1.58;;;13.80;99.90;;;;;;5072899;28;20052;-60
2023/10/08 03:37:21;;;;;;;7.80;1.60;;;13.80;99.90;;;;;;5072866;28;20087;-60
2023/10/08 03:40:22;;;;;;;;;;;13.80;99.90;;;;;;5072898;28;20155;-59
2023/10/08 03:42:49;;;;;;;7.88;1.33;;;13.70;99.90;;;;;;5072739;28;20356;-59
2023/10/08 03:45:22;;;;;;;9.73;1.42;;;13.70;99.90;;;;;;5072931;28;20401;-60
2023/10/08 03:48:03;;;;;;;5.30;1.08;;;13.70;99.90;;;;;;5072017;28;20049;-60
2023/10/08 03:50:40;;;;;;;7.40;1.10;;;13.80;99.90;;;;;;5062178;28;20481;-60
2023/10/08 03:53:11;;;;;;;8.98;1.17;;;13.70;99.90;;;;;;5064618;28;20036;-59
2023/10/08 03:55:40;;;;;;;7.32;1.52;;;13.80;99.90;;;;;;5071509;28;20048;-60
2023/10/08 03:58:12;;;;;;;5.85;1.58;;;13.70;99.90;;;;;;5072430;28;20044;-60
2023/10/08 04:00:41;;;;;;;7.25;1.35;;;13.70;99.90;;;;;;5072563;28;20044;-60
2023/10/08 04:03:11;;;;;;;6.38;1.60;;;13.80;99.90;;;;;;5071285;28;20045;-60
2023/10/08 04:05:44;;;;;;;4.93;1.42;;;13.70;99.90;;;;;;5072305;28;20497;-60
2023/10/08 04:08:42;;;;;;;6.32;1.35;;;13.70;99.90;;;;;;5070907;28;20052;-58
2023/10/08 04:13:59;;;;;;;6.57;1.73;;;13.70;99.90;;;;;;5072326;28;20105;-60
2023/10/08 04:16:27;;;;;;;7.65;1.90;;;13.50;99.90;;;;;;5072229;28;20044;-60
2023/10/08 04:18:56;;;;;;;7.68;1.90;;;13.70;99.90;;;;;;5071060;28;20071;-60
2023/10/08 04:21:27;;;;;;;5.82;1.45;;;13.70;99.90;;;;;;5072212;28;20055;-60
2023/10/08 04:23:53;;;;;;;5.97;1.80;;;13.60;99.90;;;;;;5072134;28;20401;-60
2023/10/08 04:26:25;;;;;;;8.85;1.83;;;13.70;99.90;;;;;;5071904;28;20120;-59
2023/10/08 04:28:57;;;;;;;5.68;1.70;;;13.60;99.90;;;;;;5071966;28;20067;-59
2023/10/08 04:31:28;;;;;;;10.25;2.45;;;13.60;99.90;;;;;;5072344;28;20028;-60
2023/10/08 04:33:54;;;;;;;7.68;1.73;;;13.70;99.90;;;;;;5071860;28;20056;-60
2023/10/08 04:36:20;;;;;;;10.15;1.40;;;13.60;99.90;;;;;;5072156;28;20040;-59
2023/10/08 04:38:54;;;;;;;8.05;1.83;;;13.50;99.90;;;;;;5070572;28;20473;-60
2023/10/08 04:41:19;;;;;;;8.43;1.58;;;13.60;99.90;;;;;;5071957;28;20045;-60
2023/10/08 04:43:45;;;;;;;7.82;1.80;;;13.50;99.90;;;;;;5071639;28;20091;-58
2023/10/08 04:46:33;;;;;;;8.25;1.60;;;13.70;99.90;;;;;;5071840;28;20104;-59
2023/10/08 04:49:04;;;;;;;7.60;1.80;;;13.60;99.90;;;;;;5071535;28;20052;-60
2023/10/08 04:51:35;;;;;;;7.63;1.30;;;13.60;99.90;;;;;;5071745;28;20072;-60
2023/10/08 04:54:04;;;;;;;7.75;1.73;;;13.60;99.90;;;;;;5075847;28;20040;-60
2023/10/08 04:56:33;;;;;;;6.60;1.35;;;13.60;99.90;;;;;;5075819;28;20045;-60
2023/10/08 04:58:58;;;;;;;9.93;2.05;;;13.60;99.90;;;;;;5075844;28;20105;-60
2023/10/08 05:04:23;;;;;;;8.15;1.60;;;13.60;99.90;;;;;;5075996;28;20079;-60
2023/10/08 05:07:00;;;;;;;8.77;1.90;;;13.60;99.90;;;;;;5075797;28;20546;-60
2023/10/08 05:09:39;;;;;;;6.78;1.40;;;13.60;99.90;;;;;;5075565;28;20512;-60
2023/10/08 05:12:10;;;;;;;11.73;1.73;;;13.60;99.90;;;;;;5075615;28;20039;-60
2023/10/08 05:14:45;;;;;;;10.30;2.10;;;13.60;99.90;;;;;;5075638;28;20041;-60
2023/10/08 05:17:11;;;;;;;6.13;1.23;;;13.50;99.90;;;;;;5075860;28;20036;-60
2023/10/08 05:22:18;;;;;;;5.28;1.27;;;13.50;99.90;;;;;;5075500;28;20051;-60
2023/10/08 05:30:37;;;;;;;6.10;1.48;;;13.40;99.90;;;;;;5075293;28;20115;-60
2023/10/08 05:46:46;;;;;;;7.88;1.30;;;13.40;99.90;;;;;;5075174;28;20057;-60
2023/10/08 05:54:47;;;;;;;8.07;1.60;;;13.40;99.90;;;;;;5064445;28;20048;-59
2023/10/08 06:13:02;;;;;;;10.02;2.60;;;13.30;99.90;;;;;;5073730;28;20127;-59
2023/10/08 06:18:14;;;;;;;9.57;3.13;;;13.30;99.90;;;;;;5073580;28;20059;-59
2023/10/08 06:20:43;;;;;;;12.60;4.00;;;13.30;99.90;;;;;;5073798;28;20036;-59
2023/10/08 06:23:18;;;;;;;8.82;2.63;;;13.20;99.90;;;;;;5072245;28;20378;-58
2023/10/08 06:25:44;;;;;;;9.38;2.53;;;13.30;99.90;;;;;;5072760;28;20059;-59
2023/10/08 06:28:15;;;;;;;6.80;1.50;;;13.10;99.90;;;;;;5066116;28;20044;-60
2023/10/08 06:30:41;;;;;;;5.18;1.60;;;13.10;99.90;;;;;;5064301;28;20116;-59
2023/10/08 06:33:07;;;;;;;9.18;1.80;;;13.20;99.90;;;;;;5063167;28;20119;-58
2023/10/08 06:35:33;;;;;;;6.93;1.30;;;13.30;99.90;;;;;;5053223;28;20725;-59
2023/10/08 06:38:01;;;;;;;8.90;1.73;;;13.30;99.90;;;;;;5053273;28;20123;-59
2023/10/08 06:43:24;;;;;;;7.72;1.55;;;13.30;99.90;;;;;;5053225;28;20127;-59
2023/10/08 06:45:53;;;;;;;7.30;1.52;;;13.40;99.90;;;;;;5061987;28;20397;-59
2023/10/08 06:48:20;;;;;;;9.70;1.80;;;13.40;99.90;;;;;;5073269;28;20460;-60
2023/10/08 06:51:07;;;;;;;6.22;1.30;;;13.40;99.90;;;;;;5072850;28;20040;-59
2023/10/08 06:53:33;;;;;;;9.23;1.48;;;13.50;99.90;;;;;;5073166;28;20048;-59
2023/10/08 06:56:04;;;;;;;7.47;1.40;;;13.40;99.90;;;;;;5071687;28;20393;-59
2023/10/08 06:58:33;;;;;;;9.80;1.65;;;13.50;99.90;;;;;;5072926;28;20389;-58
2023/10/08 07:01:04;;;;;;;6.32;1.45;;;13.50;99.90;;;;;;5072800;28;20048;-59
2023/10/08 07:03:31;;;;;;;6.47;1.40;;;13.60;99.90;;;;;;5071579;28;20090;-59
2023/10/08 07:06:02;;;;;;;9.77;2.45;;;13.60;99.90;;;;;;5072728;28;20571;-59
2023/10/08 07:08:32;;;;;;;12.85;5.80;;;13.70;99.90;;;;;;5072599;28;20416;-59
2023/10/08 07:11:01;;;;;;;15.63;8.43;;;13.70;99.90;;;;;;5072469;28;20499;-59
2023/10/08 07:13:29;;;;;;;14.52;6.05;;;13.80;99.90;;;;;;5072102;28;20086;-59
2023/10/08 07:15:56;;;;;;;12.50;2.90;;;13.70;99.90;;;;;;5072032;28;20051;-59
2023/10/08 07:18:24;;;;;;;7.90;2.17;;;13.60;99.90;;;;;;5072374;28;20411;-59
2023/10/08 07:20:56;;;;;;;10.73;1.90;;;13.80;99.90;;;;;;5072254;28;20078;-59
2023/10/08 07:23:25;;;;;;;8.45;1.60;;;13.70;99.90;;;;;;5072519;28;20045;-59
2023/10/08 07:26:11;;;;;;;10.50;1.73;;;13.70;99.90;;;;;;5072280;28;20465;-59
2023/10/08 07:28:43;;;;;;;7.38;1.60;;;13.70;99.90;;;;;;5072261;28;20033;-59
2023/10/08 07:31:36;;;;;;;8.02;1.98;;;13.70;99.90;;;;;;5072199;28;20150;-49
2023/10/08 07:34:16;;;;;;;8.48;1.90;;;13.70;99.90;;;;;;5070146;28;20485;-51
2023/10/08 07:36:47;;;;;;;6.05;1.70;;;13.80;99.90;;;;;;5071015;28;20417;-49
2023/10/08 07:41:51;;;;;;;9.85;1.70;;;13.50;99.90;;;;;;5072058;28;20059;-47
2023/10/08 07:44:21;;;;;;;6.88;1.60;;;13.70;99.90;;;;;;5071758;28;20047;-49
2023/10/08 07:46:51;;;;;;;6.53;1.80;;;13.80;99.90;;;;;;5071954;28;20040;-47
2023/10/08 07:49:17;;;;;;;10.18;2.20;;;13.80;99.90;;;;;;5071646;28;20041;-47
2023/10/08 07:51:50;;;;;;;9.68;2.47;;;13.80;99.90;;;;;;5071519;28;20469;-46
2023/10/08 07:54:22;;;;;;;10.57;2.50;;;13.80;99.90;;;;;;5071811;28;20087;-48
2023/10/08 07:56:48;;;;;;;9.52;2.38;;;13.90;99.90;;;;;;5071700;28;20048;-50
2023/10/08 07:59:16;;;;;;;8.93;2.42;;;13.90;99.90;;;;;;5071474;28;20056;-46
2023/10/08 08:01:42;;;;;;;9.95;2.00;;;13.90;99.90;;;;;;5071677;28;20059;-47
2023/10/08 08:04:22;;;;;;;9.48;1.80;;;14.00;99.90;;;;;;5071780;28;20047;-47
2023/10/08 08:06:49;;;;;;;7.85;1.50;;;14.00;99.90;;;;;;5071591;28;20028;-46
2023/10/08 08:09:19;;;;;;;7.85;1.40;;;14.00;95.10;;;;;;5071256;28;20577;-46
2023/10/08 08:11:46;;;;;;;9.85;1.48;;;14.00;96.70;;;;;;5071286;28;20040;-49
2023/10/08 08:14:16;;;;;;;9.15;1.45;;;14.10;94.90;;;;;;5071062;28;20397;-50
2023/10/08 08:16:46;;;;;;;10.13;1.67;;;14.10;94.50;;;;;;5071465;28;20037;-47
2023/10/08 08:19:12;;;;;;;9.35;1.50;;;14.10;90.90;;;;;;5070313;28;20105;-46
2023/10/08 08:21:44;;;;;;;6.78;1.90;;;14.00;72.50;;;;;;5071369;28;20872;-46
2023/10/08 08:24:14;;;;;;;;;;;13.90;60.30;;;;;;5071970;28;20040;-46
2023/10/08 08:26:44;;;;;;;6.88;1.30;;;13.90;59.50;;;;;;5071400;28;19923;-47
2023/10/08 08:29:15;;;;;;;7.88;1.45;;;14.00;55.80;;;;;;5071223;28;20066;-46
2023/10/08 08:31:46;;;;;;;7.25;1.20;;;14.00;52.30;;;;;;5071446;28;20052;-48
2023/10/08 08:34:19;;;;;;;6.80;1.40;;;14.00;59.80;;;;;;5071147;28;20060;-50
2023/10/08 08:36:48;;;;;;;8.38;1.70;;;14.00;55.80;;;;;;5071463;28;20051;-49
2023/10/08 08:39:32;;;;;;;7.57;1.83;;;14.10;68.80;;;;;;5071211;28;20181;-49
2023/10/08 08:42:01;;;;;;;11.02;1.55;;;14.10;65.70;;;;;;5070809;28;20051;-50
2023/10/08 08:44:32;;;;;;;7.13;1.20;;;14.30;55.60;;;;;;5070699;28;20040;-49
2023/10/08 08:47:04;;;;;;;8.52;1.35;;;14.40;73.00;;;;;;5070751;28;20754;-46
2023/10/08 08:49:34;;;;;;;8.57;1.50;;;14.40;52.30;;;;;;5070752;28;20050;-50
2023/10/08 08:52:00;;;;;;;10.48;1.20;;;14.40;44.10;;;;;;5070861;28;20039;-45
2023/10/08 08:54:30;;;;;;;8.70;1.50;;;14.40;27.60;;;;;;5069837;28;20534;-50
2023/10/08 08:56:59;;;;;;;6.72;1.25;;;14.40;26.70;;;;;;5070962;28;20032;-49
2023/10/08 08:59:26;;;;;;;13.13;2.05;;;14.50;20.30;;;;;;5070788;28;20037;-49
2023/10/08 09:01:53;;;;;;;6.85;1.60;;;14.60;21.60;;;;;;5071138;28;20385;-47
2023/10/08 09:04:29;;;;;;;7.13;1.20;;;14.60;23.80;;;;;;5070909;28;20038;-49
2023/10/08 09:06:55;;;;;;;8.02;1.25;;;14.70;25.30;;;;;;5071042;28;20461;-48
2023/10/08 09:09:25;;;;;;;11.70;1.80;;;14.70;19.80;;;;;;5069438;28;20055;-47
2023/10/08 09:11:52;;;;;;;17.58;1.85;;;14.80;19.70;;;;;;5070839;28;20048;-45
2023/10/08 09:14:25;;;;;;;8.90;1.60;;;14.90;16.10;;;;;;5070782;28;20394;-48
2023/10/08 09:16:54;;;;;;;10.98;2.17;;;14.90;4.30;;;;;;5071044;28;20049;-47
2023/10/08 09:19:24;;;;;;;7.82;1.60;;;14.90;1.00;;;;;;5063617;28;20500;-48
2023/10/08 09:22:06;;;;;;;7.45;1.20;;;14.90;5.00;;;;;;5058980;28;20045;-51
2023/10/08 09:24:41;;;;;;;9.40;1.40;;;14.90;1.00;;;;;;5057834;28;20053;-50
2023/10/08 09:27:19;;;;;;;10.20;1.50;;;15.10;1.00;;;;;;5064518;28;20103;-48
2023/10/08 09:29:47;;;;;;;7.43;1.55;;;15.10;1.00;;;;;;5050633;28;20382;-50
2023/10/08 09:32:13;;;;;;;9.60;1.80;;;15.10;1.00;;;;;;5062021;28;20055;-50
2023/10/08 09:34:40;;;;;;;9.73;2.08;;;15.20;1.00;;;;;;5069851;28;20092;-49
2023/10/08 09:37:07;;;;;;;9.63;2.25;;;15.20;1.00;;;;;;5051460;28;20041;-58
2023/10/08 09:39:33;;;;;;;7.35;1.30;;;15.20;1.00;;;;;;5060117;28;20095;-58
2023/10/08 09:42:02;;;;;;;8.32;1.33;;;15.20;1.00;;;;;;5073836;28;20071;-47
2023/10/08 09:44:30;;;;;;;7.50;1.40;;;15.20;1.00;;;;;;5073588;28;20074;-48
2023/10/08 09:47:06;;;;;;;8.45;1.05;;;15.40;1.00;;;;;;5073705;28;20135;-50
2023/10/08 09:49:38;;;;;;;6.72;1.50;;;15.40;1.00;;;;;;5073547;28;20044;-50
2023/10/08 09:52:06;;;;;;;8.02;1.30;;;15.50;1.00;;;;;;5073714;28;20044;-48
2023/10/08 09:55:03;;;;;;;9.40;1.15;;;15.50;1.00;;;;;;5072073;28;20382;-48
2023/10/08 09:57:29;;;;;;;9.40;1.50;;;15.50;1.00;;;;;;5062301;28;20091;-50
2023/10/08 09:59:57;;;;;;;7.25;1.13;;;15.60;1.00;;;;;;5053522;28;20069;-46
2023/10/08 10:02:27;;;;;;;7.80;1.13;;;15.60;1.00;;;;;;5054002;28;20151;-47
2023/10/08 10:04:54;;;;;;;7.60;1.38;;;15.70;1.00;;;;;;5053685;28;20041;-46
2023/10/08 10:07:20;;;;;;;9.07;1.52;;;15.80;1.00;;;;;;5054011;28;20033;-47
2023/10/08 10:09:54;;;;;;;7.63;2.10;;;15.90;1.00;;;;;;5053538;28;20116;-48
2023/10/08 10:12:25;;;;;;;9.18;1.55;;;15.90;1.00;;;;;;5054071;28;20108;-48
2023/10/08 10:14:55;;;;;;;10.38;1.55;;;16.00;1.00;;;;;;5053408;28;20112;-51
2023/10/08 10:17:22;;;;;;;9.02;1.85;;;16.10;1.00;;;;;;5053798;28;20436;-47
2023/10/08 10:20:02;;;;;;;9.65;1.67;;;16.10;1.00;;;;;;5052405;28;20049;-52
2023/10/08 10:22:35;;;;;;;9.20;1.63;;;16.20;1.00;;;;;;5054277;28;20041;-51
2023/10/08 10:25:14;;;;;;;8.50;1.33;;;16.30;1.00;;;;;;5054392;28;20037;-50
2023/10/08 10:27:55;;;;;;;7.63;1.33;;;16.40;1.00;;;;;;5054343;28;20073;-50
2023/10/08 10:30:23;;;;;;;8.60;1.27;;;16.30;1.00;;;;;;5054136;28;20044;-48
2023/10/08 10:32:52;;;;;;;6.65;1.30;;;16.30;1.00;;;;;;5074154;28;20416;-51
2023/10/08 10:35:19;;;;;;;9.45;1.33;;;16.20;1.00;;;;;;5073739;28;20048;-47
2023/10/08 10:37:52;;;;;;;9.40;1.40;;;16.20;1.00;;;;;;5074193;28;20108;-50
2023/10/08 10:40:39;;;;;;;8.52;1.20;;;16.30;1.00;;;;;;5074213;28;20040;-48
2023/10/08 10:43:15;;;;;;;6.63;1.20;;;16.20;1.00;;;;;;5073927;28;20071;-47
2023/10/08 10:45:46;;;;;;;7.47;1.30;;;16.10;1.00;;;;;;5073674;28;20032;-48
2023/10/08 10:48:21;;;;;;;6.82;1.13;;;16.20;1.00;;;;;;5074019;28;20047;-47
2023/10/08 10:51:08;;;;;;;6.03;1.23;;;16.20;1.00;;;;;;5072590;28;20107;-49
2023/10/08 10:53:57;;;;;;;11.02;1.60;;;16.20;1.00;;;;;;5073609;28;20037;-48
2023/10/08 10:56:30;;;;;;;7.78;2.28;;;16.20;1.00;;;;;;5072501;28;20041;-47
2023/10/08 10:59:00;;;;;;;8.10;1.85;;;16.30;1.00;;;;;;5073947;28;20124;-47
2023/10/08 11:01:44;;;;;;;8.48;1.50;;;16.30;1.00;;;;;;5072319;28;20050;-47
2023/10/08 11:04:16;;;;;;;9.02;1.50;;;16.10;1.00;;;;;;5073419;28;20040;-48
2023/10/08 11:06:47;;;;;;;6.18;1.52;;;16.20;1.00;;;;;;5072197;28;20048;-48
2023/10/08 11:09:16;;;;;;;6.65;1.15;;;16.30;1.00;;;;;;5073237;28;20085;-51
2023/10/08 11:11:43;;;;;;;7.15;1.48;;;16.30;1.00;;;;;;5073537;28;20460;-49
2023/10/08 11:14:18;;;;;;;5.18;1.20;;;16.30;1.00;;;;;;5073430;28;20392;-50
2023/10/08 11:16:45;;;;;;;6.68;1.35;;;16.30;1.00;;;;;;5072959;28;20464;-47
2023/10/08 11:19:14;;;;;;;8.75;1.13;;;16.30;1.00;;;;;;5062677;28;20048;-48
2023/10/08 11:21:51;;;;;;;7.55;1.90;;;16.30;1.00;;;;;;5053437;28;20044;-47
2023/10/08 11:24:33;;;;;;;6.40;1.77;;;16.20;1.00;;;;;;5053005;28;20080;-48
2023/10/08 11:27:15;;;;;;;7.72;1.40;;;16.10;1.00;;;;;;5053361;28;20049;-51
2023/10/08 11:29:48;;;;;;;9.23;1.58;;;16.20;1.00;;;;;;5052771;28;20041;-48
2023/10/08 11:32:17;;;;;;;9.07;1.70;;;16.30;1.00;;;;;;5068397;28;20045;-47
2023/10/08 11:34:49;;;;;;;10.38;1.85;;;16.30;1.00;;;;;;5072458;28;20131;-47
2023/10/08 11:37:26;;;;;;;6.55;1.15;;;16.40;1.00;;;;;;5073149;28;20116;-47
2023/10/08 11:39:53;;;;;;;9.43;1.65;;;16.30;1.00;;;;;;5072614;28;20047;-48
2023/10/08 11:44:59;;;;;;;5.38;1.10;;;16.50;1.00;;;;;;5072676;28;20045;-51
2023/10/08 11:47:35;;;;;;;8.40;1.33;;;16.50;1.00;;;;;;5072942;28;20068;-52
2023/10/08 11:50:11;;;;;;;7.65;1.60;;;16.40;1.00;;;;;;5072622;28;20062;-48
2023/10/08 11:52:43;;;;;;;8.00;1.38;;;16.40;1.00;;;;;;5073052;28;20454;-49
2023/10/08 11:55:14;;;;;;;8.18;1.42;;;16.40;1.00;;;;;;5072659;28;20064;-50
2023/10/08 11:57:45;;;;;;;8.70;1.95;;;16.40;1.00;;;;;;5072141;28;20029;-49
2023/10/08 12:00:24;;;;;;;7.10;1.55;;;16.50;1.00;;;;;;5072376;28;20078;-56
2023/10/08 12:27:17;;;;;;;9.27;1.42;;;16.70;1.00;;;;;;5079646;27;1260512;-58
2023/10/08 12:29:42;;;;;;;7.03;1.33;;;16.60;1.00;;;;;;5110506;28;20056;-58
2023/10/08 12:32:17;;;;;;;8.10;1.30;;;16.70;1.00;;;;;;5112013;28;20065;-58
2023/10/08 12:34:42;;;;;;;11.85;2.33;;;16.70;1.00;;;;;;5111552;28;21491;-58
2023/10/08 12:37:08;;;;;;;8.23;1.50;;;16.70;1.00;;;;;;5111409;28;20039;-58
2023/10/08 12:39:43;;;;;;;7.65;1.15;;;16.80;1.00;;;;;;5112867;28;20071;-58
2023/10/08 12:42:09;;;;;;;5.70;1.30;;;16.90;1.00;;;;;;5108144;28;20054;-58
2023/10/08 12:44:36;;;;;;;6.55;1.30;;;16.90;1.00;;;;;;5107559;28;20115;-58
2023/10/08 12:47:05;;;;;;;7.35;1.23;;;17.00;1.00;;;;;;5108154;28;20055;-58
2023/10/08 12:49:33;;;;;;;8.65;1.30;;;16.90;1.00;;;;;;5107872;28;20139;-58
2023/10/08 12:52:02;;;;;;;8.25;1.63;;;16.80;1.00;;;;;;5107135;28;20048;-58
2023/10/08 12:54:33;;;;;;;8.93;1.50;;;16.70;1.00;;;;;;5106915;28;20052;-58
2023/10/08 12:56:59;;;;;;;6.83;1.10;;;16.50;1.00;;;;;;5108665;28;21405;-58
2023/10/08 12:59:25;;;;;;;7.25;1.27;;;16.60;1.00;;;;;;5107978;28;20335;-58
2023/10/08 13:01:53;;;;;;;6.90;1.20;;;16.60;1.00;;;;;;5107244;28;20036;-58
2023/10/08 13:04:27;;;;;;;9.45;1.55;;;16.50;1.00;;;;;;5108982;28;20059;-57
2023/10/08 13:07:00;;;;;;;8.25;1.48;;;16.40;1.00;;;;;;5107051;28;20055;-57
2023/10/08 13:09:26;;;;;;;6.82;1.10;;;16.50;1.00;;;;;;5108970;28;20043;-58
2023/10/08 13:11:52;;;;;;;8.95;1.50;;;16.70;1.00;;;;;;5107451;28;20047;-58
2023/10/08 13:14:18;;;;;;;6.05;1.00;;;16.70;1.00;;;;;;5107575;28;20760;-58
2023/10/08 13:16:45;;;;;;;8.27;1.30;;;16.70;1.00;;;;;;5108207;28;20052;-58
2023/10/08 13:19:10;;;;;;;7.72;1.70;;;16.80;1.00;;;;;;5107825;28;20112;-58
2023/10/08 13:21:37;;;;;;;8.23;1.73;;;16.90;1.00;;;;;;5108304;28;20039;-58
2023/10/08 13:24:05;;;;;;;8.57;1.45;;;16.90;1.00;;;;;;5107217;28;20052;-58
2023/10/08 13:26:31;;;;;;;8.73;1.70;;;16.90;1.00;;;;;;5132417;27;20050;-58
2023/10/08 13:29:00;;;;;;;8.07;1.23;;;16.90;1.00;;;;;;5148739;27;21430;-58
2023/10/08 13:31:27;;;;;;;7.32;1.63;;;16.90;1.00;;;;;;5149636;27;20068;-57
2023/10/08 13:33:56;;;;;;;11.48;1.98;;;16.90;1.00;;;;;;5149064;27;20086;-58
2023/10/08 13:36:23;;;;;;;10.77;1.55;;;16.60;1.00;;;;;;5148166;27;20043;-58
2023/10/08 13:38:50;;;;;;;7.93;1.58;;;16.40;1.00;;;;;;5134760;27;20039;-58
2023/10/08 13:41:16;;;;;;;6.90;1.58;;;16.70;1.00;;;;;;5134222;27;20035;-58
2023/10/08 13:43:47;;;;;;;5.88;1.25;;;16.90;1.00;;;;;;5135681;27;20075;-58
2023/10/08 13:46:14;;;;;;;7.88;1.65;;;16.90;1.00;;;;;;5134471;27;20381;-58
2023/10/08 13:48:45;;;;;;;9.43;1.50;;;16.90;1.00;;;;;;5135276;27;20039;-58
2023/10/08 13:51:13;;;;;;;7.40;1.20;;;16.90;1.00;;;;;;5135272;27;20035;-58
2023/10/08 13:53:47;;;;;;;6.25;1.30;;;16.80;1.00;;;;;;5115762;27;20055;-59
2023/10/08 13:56:13;;;;;;;7.90;1.23;;;16.80;1.00;;;;;;5135063;27;20528;-58
2023/10/08 13:58:46;;;;;;;6.75;1.23;;;16.80;1.00;;;;;;5133995;27;20047;-58
2023/10/08 14:01:19;;;;;;;6.90;1.33;;;16.70;1.00;;;;;;5135311;27;20038;-58
2023/10/08 14:03:48;;;;;;;9.57;1.40;;;16.70;1.00;;;;;;5116257;27;20055;-58
2023/10/08 14:06:16;;;;;;;8.88;1.38;;;16.70;1.00;;;;;;5115878;27;20043;-57
2023/10/08 14:08:48;;;;;;;8.73;1.63;;;16.70;1.00;;;;;;5135033;27;20051;-58
2023/10/08 14:11:14;;;;;;;6.25;1.30;;;16.60;1.00;;;;;;5133929;27;20051;-58
2023/10/08 14:13:42;;;;;;;6.15;1.35;;;16.70;1.00;;;;;;5135316;27;20035;-58
2023/10/08 14:16:11;;;;;;;7.95;1.17;;;16.60;1.00;;;;;;5115572;27;20079;-58
2023/10/08 14:18:40;;;;;;;7.57;1.70;;;16.60;1.00;;;;;;5134430;27;20051;-58
2023/10/08 14:21:11;;;;;;;5.63;1.05;;;16.60;1.00;;;;;;5134347;27;20077;-58
2023/10/08 14:23:40;;;;;;;6.00;1.50;;;16.60;1.00;;;;;;5133785;27;20085;-57
2023/10/08 14:26:10;;;;;;;7.00;1.40;;;16.50;1.00;;;;;;5134321;27;20144;-58
2023/10/08 14:28:40;;;;;;;10.48;1.33;;;16.50;1.00;;;;;;5132107;27;20043;-58
2023/10/08 14:31:15;;;;;;;8.25;1.35;;;16.50;1.00;;;;;;5115186;27;20047;-58
2023/10/08 14:33:43;;;;;;;7.30;1.30;;;16.50;1.00;;;;;;5132330;27;20050;-58
2023/10/08 14:44:23;;;;;;;7.22;1.60;;;16.60;1.00;;;;;;5133200;27;20050;-58
2023/10/08 14:46:50;;;;;;;7.90;1.50;;;16.50;1.00;;;;;;5132409;27;20047;-58